createdAt,value
2022-08-28T10:05:57.538Z,89.47
2022-08-28T10:08:29.811Z,85.63
2022-08-28T10:11:01.028Z,87.60
2022-08-28T10:13:31.882Z,84.97
2022-08-28T10:16:06.161Z,83.47
2022-08-28T10:18:38.021Z,87.93
2022-08-28T10:21:12.583Z,83.83
2022-08-28T10:38:02.049Z,83.60
2022-08-28T10:40:31.314Z,89.27
2022-08-28T10:43:03.635Z,93.80
2022-08-28T10:45:34.251Z,90.17
2022-08-28T10:48:07.058Z,88.97
2022-08-28T10:50:40.782Z,93.10
2022-08-28T10:53:12.184Z,88.40
2022-08-28T10:55:45.504Z,93.10
2022-08-28T10:58:13.965Z,91.47
2022-08-28T11:00:55.152Z,96.57
2022-08-28T11:03:34.482Z,91.87
2022-08-28T11:06:05.756Z,88.37
2022-08-28T11:08:36.642Z,88.97
2022-08-28T11:11:06.309Z,87.60
2022-08-28T11:13:42.633Z,93.27
2022-08-28T11:16:14.695Z,88.10
2022-08-28T11:19:00.588Z,89.10
2022-08-28T11:21:30.403Z,90.70
2022-08-28T11:24:02.961Z,92.37
2022-08-28T11:26:33.847Z,93.77
2022-08-28T11:29:04.295Z,88.27
2022-08-28T11:31:37.415Z,92.57
2022-08-28T11:34:06.197Z,87.37
2022-08-28T11:36:52.770Z,96.23
2022-08-28T11:39:23.075Z,100.03
2022-08-28T11:42:15.210Z,96.80
2022-08-28T11:44:45.830Z,89.33
2022-08-28T11:47:32.432Z,92.10
2022-08-28T11:50:04.662Z,91.87
2022-08-28T11:52:43.621Z,98.90
2022-08-28T11:55:24.736Z,97.93
2022-08-28T12:00:35.629Z,96.80
2022-08-28T12:03:11.813Z,87.83
2022-08-28T12:05:45.381Z,96.73
2022-08-28T12:08:14.417Z,98.70
2022-08-28T12:11:00.318Z,98.67
2022-08-28T12:13:45.090Z,94.10
2022-08-28T12:16:13.589Z,91.90
2022-08-28T12:19:03.714Z,90.70
2022-08-28T12:21:32.844Z,101.77
2022-08-28T12:24:09.083Z,92.10
2022-08-28T12:26:47.089Z,101.90
2022-08-28T12:29:27.126Z,93.10
2022-08-28T12:32:16.107Z,98.47
2022-08-28T12:35:05.627Z,98.93
2022-08-28T12:37:39.574Z,107.33
2022-08-28T12:40:24.622Z,95.00
2022-08-28T12:42:56.101Z,99.50
2022-08-28T12:45:26.214Z,98.83
2022-08-28T12:47:56.590Z,99.27
2022-08-28T12:50:30.059Z,100.83
2022-08-28T12:53:00.095Z,100.47
2022-08-28T12:55:28.570Z,102.63
2022-08-28T12:57:58.143Z,96.70
2022-08-28T13:00:27.118Z,94.20
2022-08-28T13:02:56.632Z,97.77
2022-08-28T13:05:32.158Z,95.67
2022-08-28T13:08:01.718Z,99.47
2022-08-28T13:10:31.004Z,108.43
2022-08-28T13:13:05.415Z,92.40
2022-08-28T13:15:43.855Z,96.80
2022-08-28T13:18:12.202Z,93.30
2022-08-28T13:20:40.413Z,97.40
2022-08-28T13:23:08.901Z,90.67
2022-08-28T13:25:37.837Z,93.17
2022-08-28T13:28:14.803Z,96.23
2022-08-28T13:30:43.076Z,92.73
2022-08-28T13:33:20.853Z,91.73
2022-08-28T13:35:49.164Z,94.43
2022-08-28T13:38:18.715Z,89.57
2022-08-28T13:40:58.298Z,96.50
2022-08-28T13:43:29.558Z,89.67
2022-08-28T13:45:57.871Z,89.10
2022-08-28T13:48:27.430Z,90.63
2022-08-28T13:50:58.403Z,90.37
2022-08-28T13:53:27.281Z,89.17
2022-08-28T13:55:55.744Z,102.53
2022-08-28T13:58:24.029Z,95.20
2022-08-28T14:00:53.697Z,93.83
2022-08-28T14:03:37.670Z,90.10
2022-08-28T14:06:06.852Z,96.60
2022-08-28T14:08:35.265Z,85.07
2022-08-28T14:11:06.192Z,86.20
2022-08-28T14:13:34.446Z,91.53
2022-08-28T14:16:05.426Z,79.20
2022-08-28T14:18:34.602Z,82.03
2022-08-28T14:21:02.755Z,82.23
2022-08-28T14:23:30.946Z,84.43
2022-08-28T14:25:59.139Z,82.17
2022-08-28T14:28:27.378Z,82.90
2022-08-28T14:30:55.627Z,82.87
2022-08-28T14:33:25.190Z,79.90
2022-08-28T14:35:53.545Z,82.00
2022-08-28T14:38:21.763Z,84.20
2022-08-28T14:40:50.259Z,85.03
2022-08-28T14:43:21.477Z,78.47
2022-08-28T14:45:52.541Z,83.80
2022-08-28T14:48:20.771Z,86.17
2022-08-28T14:50:50.308Z,83.17
2022-08-28T14:53:18.693Z,79.93
2022-08-28T14:55:47.732Z,83.70
2022-08-28T14:58:16.689Z,79.17
2022-08-28T15:00:47.387Z,85.33
2022-08-28T15:03:16.163Z,86.83
2022-08-28T15:05:44.625Z,89.93
2022-08-28T15:08:15.425Z,90.30
2022-08-28T15:10:44.490Z,88.17
2022-08-28T15:13:13.307Z,83.70
2022-08-28T15:15:43.964Z,82.73
2022-08-28T15:18:12.698Z,84.43
2022-08-28T15:20:41.400Z,81.87
2022-08-28T15:23:09.919Z,80.17
2022-08-28T15:25:39.814Z,81.67
2022-08-28T15:28:08.281Z,84.60
2022-08-28T15:30:37.008Z,80.23
2022-08-28T15:33:05.769Z,81.63
2022-08-28T15:35:40.149Z,81.53
2022-08-28T15:38:08.859Z,90.67
2022-08-28T15:40:54.880Z,79.87
2022-08-28T15:43:24.547Z,82.37
2022-08-28T15:49:44.794Z,76.27
2022-08-28T15:52:18.495Z,79.20
2022-08-28T15:54:46.830Z,74.47
2022-08-28T15:57:33.656Z,78.97
2022-08-28T16:00:06.396Z,78.67
2022-08-28T16:02:36.846Z,78.90
2022-08-28T16:05:05.395Z,73.97
2022-08-28T16:07:33.599Z,77.00
